sensor_id;sensor_type;location;lat;lon;timestamp;temperature;humidity
50162;DHT22;36061;48.116;11.612;2022-10-16T00:00:17;13.30;99.90
50162;DHT22;36061;48.116;11.612;2022-10-16T00:02:43;13.30;99.90
50162;DHT22;36061;48.116;11.612;2022-10-16T00:05:08;13.40;99.90
50162;DHT22;36061;48.116;11.612;2022-10-16T00:07:34;13.30;99.90
50162;DHT22;36061;48.116;11.612;2022-10-16T00:10:00;13.30;99.90
50162;DHT22;36061;48.116;11.612;2022-10-16T00:12:26;13.20;99.90
50162;DHT22;36061;48.116;11.612;2022-10-16T00:14:51;13.20;99.90
50162;DHT22;36061;48.116;11.612;2022-10-16T00:17:17;13.20;99.90
50162;DHT22;36061;48.116;11.612;2022-10-16T00:19:43;13.20;99.90
50162;DHT22;36061;48.116;11.612;2022-10-16T00:22:09;13.20;99.90
50162;DHT22;36061;48.116;11.612;2022-10-16T00:24:34;13.20;99.90
50162;DHT22;36061;48.116;11.612;2022-10-16T00:27:01;13.10;99.90
50162;DHT22;36061;48.116;11.612;2022-10-16T00:29:27;13.10;99.90
50162;DHT22;36061;48.116;11.612;2022-10-16T00:31:53;13.10;99.90
50162;DHT22;36061;48.116;11.612;2022-10-16T00:34:19;13.10;99.90
50162;DHT22;36061;48.116;11.612;2022-10-16T00:36:44;13.10;99.90
50162;DHT22;36061;48.116;11.612;2022-10-16T00:39:10;13.10;99.90
50162;DHT22;36061;48.116;11.612;2022-10-16T00:41:36;13.10;99.90
50162;DHT22;36061;48.116;11.612;2022-10-16T00:44:40;13.00;99.90
50162;DHT22;36061;48.116;11.612;2022-10-16T00:46:50;13.00;99.90
50162;DHT22;36061;48.116;11.612;2022-10-16T00:49:18;13.00;99.90
50162;DHT22;36061;48.116;11.612;2022-10-16T00:51:47;13.00;99.90
50162;DHT22;36061;48.116;11.612;2022-10-16T00:54:17;12.90;99.90
50162;DHT22;36061;48.116;11.612;2022-10-16T00:56:46;12.90;99.90
50162;DHT22;36061;48.116;11.612;2022-10-16T00:59:19;12.90;99.90
50162;DHT22;36061;48.116;11.612;2022-10-16T01:01:46;12.80;99.90
50162;DHT22;36061;48.116;11.612;2022-10-16T01:04:12;12.80;99.90
50162;DHT22;36061;48.116;11.612;2022-10-16T01:12:15;12.80;99.90
50162;DHT22;36061;48.116;11.612;2022-10-16T01:17:53;12.80;99.90
50162;DHT22;36061;48.116;11.612;2022-10-16T01:28:19;12.70;99.90
50162;DHT22;36061;48.116;11.612;2022-10-16T01:30:47;12.70;99.90
50162;DHT22;36061;48.116;11.612;2022-10-16T01:35:46;12.70;99.90
50162;DHT22;36061;48.116;11.612;2022-10-16T01:38:20;12.70;99.90
50162;DHT22;36061;48.116;11.612;2022-10-16T01:40:53;12.70;99.90
50162;DHT22;36061;48.116;11.612;2022-10-16T01:43:28;12.70;99.90
50162;DHT22;36061;48.116;11.612;2022-10-16T01:45:55;12.70;99.90
50162;DHT22;36061;48.116;11.612;2022-10-16T01:48:22;12.60;99.90
50162;DHT22;36061;48.116;11.612;2022-10-16T01:50:59;12.60;99.90
50162;DHT22;36061;48.116;11.612;2022-10-16T01:53:26;12.60;99.90
50162;DHT22;36061;48.116;11.612;2022-10-16T01:55:54;12.70;99.90
50162;DHT22;36061;48.116;11.612;2022-10-16T01:58:23;12.60;99.90
50162;DHT22;36061;48.116;11.612;2022-10-16T02:00:49;12.60;99.90
50162;DHT22;36061;48.116;11.612;2022-10-16T02:03:18;12.60;99.90
50162;DHT22;36061;48.116;11.612;2022-10-16T02:05:47;12.60;99.90
50162;DHT22;36061;48.116;11.612;2022-10-16T02:08:14;12.50;99.90
50162;DHT22;36061;48.116;11.612;2022-10-16T02:10:40;12.50;99.90
50162;DHT22;36061;48.116;11.612;2022-10-16T02:13:09;12.50;99.90
50162;DHT22;36061;48.116;11.612;2022-10-16T02:15:36;12.50;99.90
50162;DHT22;36061;48.116;11.612;2022-10-16T02:18:05;12.50;99.90
50162;DHT22;36061;48.116;11.612;2022-10-16T02:20:56;12.50;99.90
50162;DHT22;36061;48.116;11.612;2022-10-16T02:23:30;12.40;99.90
50162;DHT22;36061;48.116;11.612;2022-10-16T02:25:59;12.40;99.90
50162;DHT22;36061;48.116;11.612;2022-10-16T02:28:34;12.40;99.90
50162;DHT22;36061;48.116;11.612;2022-10-16T02:31:04;12.40;99.90
50162;DHT22;36061;48.116;11.612;2022-10-16T02:33:32;12.40;99.90
50162;DHT22;36061;48.116;11.612;2022-10-16T02:35:59;12.40;99.90
50162;DHT22;36061;48.116;11.612;2022-10-16T02:38:25;12.40;99.90
50162;DHT22;36061;48.116;11.612;2022-10-16T02:40:51;12.40;99.90
50162;DHT22;36061;48.116;11.612;2022-10-16T02:43:17;12.30;99.90
50162;DHT22;36061;48.116;11.612;2022-10-16T02:45:44;12.40;99.90
50162;DHT22;36061;48.116;11.612;2022-10-16T02:48:09;12.40;99.90
50162;DHT22;36061;48.116;11.612;2022-10-16T02:50:35;12.40;99.90
50162;DHT22;36061;48.116;11.612;2022-10-16T02:53:01;12.30;99.90
50162;DHT22;36061;48.116;11.612;2022-10-16T02:55:26;12.40;99.90
50162;DHT22;36061;48.116;11.612;2022-10-16T02:57:53;12.40;99.90
50162;DHT22;36061;48.116;11.612;2022-10-16T03:00:20;12.40;99.90
50162;DHT22;36061;48.116;11.612;2022-10-16T03:02:46;12.40;99.90
50162;DHT22;36061;48.116;11.612;2022-10-16T03:05:13;12.30;99.90
50162;DHT22;36061;48.116;11.612;2022-10-16T03:07:39;12.30;99.90
50162;DHT22;36061;48.116;11.612;2022-10-16T03:10:05;12.30;99.90
50162;DHT22;36061;48.116;11.612;2022-10-16T03:12:31;12.30;99.90
50162;DHT22;36061;48.116;11.612;2022-10-16T03:14:57;12.30;99.90
50162;DHT22;36061;48.116;11.612;2022-10-16T03:17:24;12.30;99.90
50162;DHT22;36061;48.116;11.612;2022-10-16T03:19:50;12.30;99.90
50162;DHT22;36061;48.116;11.612;2022-10-16T03:22:15;12.30;99.90
50162;DHT22;36061;48.116;11.612;2022-10-16T03:24:41;12.20;99.90
50162;DHT22;36061;48.116;11.612;2022-10-16T03:27:07;12.20;99.90
50162;DHT22;36061;48.116;11.612;2022-10-16T03:29:33;12.20;99.90
50162;DHT22;36061;48.116;11.612;2022-10-16T03:31:59;12.20;99.90
50162;DHT22;36061;48.116;11.612;2022-10-16T03:34:25;12.20;99.90
50162;DHT22;36061;48.116;11.612;2022-10-16T03:36:52;12.20;99.90
50162;DHT22;36061;48.116;11.612;2022-10-16T03:39:19;12.20;99.90
50162;DHT22;36061;48.116;11.612;2022-10-16T03:41:45;12.20;99.90
50162;DHT22;36061;48.116;11.612;2022-10-16T03:44:12;12.20;99.90
50162;DHT22;36061;48.116;11.612;2022-10-16T03:46:38;12.20;99.90
50162;DHT22;36061;48.116;11.612;2022-10-16T03:49:04;12.10;99.90
50162;DHT22;36061;48.116;11.612;2022-10-16T03:51:30;12.10;99.90
50162;DHT22;36061;48.116;11.612;2022-10-16T03:53:56;12.20;99.90
50162;DHT22;36061;48.116;11.612;2022-10-16T03:56:22;12.20;99.90
50162;DHT22;36061;48.116;11.612;2022-10-16T03:58:47;12.10;99.90
50162;DHT22;36061;48.116;11.612;2022-10-16T04:01:13;12.20;99.90
50162;DHT22;36061;48.116;11.612;2022-10-16T04:03:39;12.20;99.90
50162;DHT22;36061;48.116;11.612;2022-10-16T04:06:05;12.30;99.90
50162;DHT22;36061;48.116;11.612;2022-10-16T04:08:31;12.60;99.90
50162;DHT22;36061;48.116;11.612;2022-10-16T04:10:59;12.30;99.90
50162;DHT22;36061;48.116;11.612;2022-10-16T04:13:25;12.30;99.90
50162;DHT22;36061;48.116;11.612;2022-10-16T04:15:51;12.30;99.90
50162;DHT22;36061;48.116;11.612;2022-10-16T04:18:16;12.30;99.90
50162;DHT22;36061;48.116;11.612;2022-10-16T04:20:42;12.30;99.90
50162;DHT22;36061;48.116;11.612;2022-10-16T04:23:08;12.30;99.90
50162;DHT22;36061;48.116;11.612;2022-10-16T04:25:34;12.40;99.90
50162;DHT22;36061;48.116;11.612;2022-10-16T04:27:59;12.40;99.90
50162;DHT22;36061;48.116;11.612;2022-10-16T04:30:25;12.40;99.90
50162;DHT22;36061;48.116;11.612;2022-10-16T04:32:52;12.40;99.90
50162;DHT22;36061;48.116;11.612;2022-10-16T04:35:19;12.40;99.90
50162;DHT22;36061;48.116;11.612;2022-10-16T04:37:45;12.40;99.90
50162;DHT22;36061;48.116;11.612;2022-10-16T04:40:11;12.40;99.90
50162;DHT22;36061;48.116;11.612;2022-10-16T04:42:37;12.40;99.90
50162;DHT22;36061;48.116;11.612;2022-10-16T04:45:04;12.50;99.90
50162;DHT22;36061;48.116;11.612;2022-10-16T04:47:30;12.50;99.90
50162;DHT22;36061;48.116;11.612;2022-10-16T04:49:56;12.50;99.90
50162;DHT22;36061;48.116;11.612;2022-10-16T04:52:22;12.50;99.90
50162;DHT22;36061;48.116;11.612;2022-10-16T04:54:50;12.50;99.90
50162;DHT22;36061;48.116;11.612;2022-10-16T04:57:16;12.50;99.90
50162;DHT22;36061;48.116;11.612;2022-10-16T04:59:42;12.50;99.90
50162;DHT22;36061;48.116;11.612;2022-10-16T05:02:08;12.50;99.90
50162;DHT22;36061;48.116;11.612;2022-10-16T05:04:34;12.50;99.90
50162;DHT22;36061;48.116;11.612;2022-10-16T05:07:00;12.50;99.90
50162;DHT22;36061;48.116;11.612;2022-10-16T05:09:25;12.60;99.90
50162;DHT22;36061;48.116;11.612;2022-10-16T05:11:51;12.60;99.90
50162;DHT22;36061;48.116;11.612;2022-10-16T05:14:17;12.60;99.90
50162;DHT22;36061;48.116;11.612;2022-10-16T05:16:43;12.60;99.90
50162;DHT22;36061;48.116;11.612;2022-10-16T05:19:09;12.60;99.90
50162;DHT22;36061;48.116;11.612;2022-10-16T05:21:35;12.60;99.90
50162;DHT22;36061;48.116;11.612;2022-10-16T05:24:01;12.60;99.90
50162;DHT22;36061;48.116;11.612;2022-10-16T05:26:27;12.60;99.90
50162;DHT22;36061;48.116;11.612;2022-10-16T05:28:53;12.60;99.90
50162;DHT22;36061;48.116;11.612;2022-10-16T05:31:18;12.60;99.90
50162;DHT22;36061;48.116;11.612;2022-10-16T05:33:44;12.60;99.90
50162;DHT22;36061;48.116;11.612;2022-10-16T05:36:11;12.70;99.90
50162;DHT22;36061;48.116;11.612;2022-10-16T05:38:37;12.70;99.90
50162;DHT22;36061;48.116;11.612;2022-10-16T05:41:04;12.70;99.90
50162;DHT22;36061;48.116;11.612;2022-10-16T05:43:30;12.70;99.90
50162;DHT22;36061;48.116;11.612;2022-10-16T05:45:58;12.80;99.90
50162;DHT22;36061;48.116;11.612;2022-10-16T05:48:24;12.70;99.90
50162;DHT22;36061;48.116;11.612;2022-10-16T05:50:58;12.80;99.90
50162;DHT22;36061;48.116;11.612;2022-10-16T05:53:24;12.80;99.90
50162;DHT22;36061;48.116;11.612;2022-10-16T05:55:55;12.80;99.90
50162;DHT22;36061;48.116;11.612;2022-10-16T05:58:21;12.80;99.90
50162;DHT22;36061;48.116;11.612;2022-10-16T06:01:14;12.80;99.90
50162;DHT22;36061;48.116;11.612;2022-10-16T06:03:41;12.80;99.90
50162;DHT22;36061;48.116;11.612;2022-10-16T06:06:12;12.80;99.90
50162;DHT22;36061;48.116;11.612;2022-10-16T06:08:38;12.80;99.90
50162;DHT22;36061;48.116;11.612;2022-10-16T06:11:06;12.80;99.90
50162;DHT22;36061;48.116;11.612;2022-10-16T06:13:32;12.80;99.90
50162;DHT22;36061;48.116;11.612;2022-10-16T06:15:59;12.80;99.90
50162;DHT22;36061;48.116;11.612;2022-10-16T06:18:26;12.80;99.90
50162;DHT22;36061;48.116;11.612;2022-10-16T06:20:52;12.80;99.90
50162;DHT22;36061;48.116;11.612;2022-10-16T06:23:18;12.80;99.90
50162;DHT22;36061;48.116;11.612;2022-10-16T06:25:44;12.90;99.90
50162;DHT22;36061;48.116;11.612;2022-10-16T06:28:10;12.90;99.90
50162;DHT22;36061;48.116;11.612;2022-10-16T06:30:36;12.90;99.90
50162;DHT22;36061;48.116;11.612;2022-10-16T06:33:01;12.90;99.90
50162;DHT22;36061;48.116;11.612;2022-10-16T06:35:27;13.00;99.90
50162;DHT22;36061;48.116;11.612;2022-10-16T06:37:54;13.00;99.90
50162;DHT22;36061;48.116;11.612;2022-10-16T06:40:20;13.10;99.90
50162;DHT22;36061;48.116;11.612;2022-10-16T06:42:46;13.10;99.90
50162;DHT22;36061;48.116;11.612;2022-10-16T06:45:12;13.10;99.90
50162;DHT22;36061;48.116;11.612;2022-10-16T06:47:38;13.20;99.90
50162;DHT22;36061;48.116;11.612;2022-10-16T06:50:04;13.20;99.90
50162;DHT22;36061;48.116;11.612;2022-10-16T06:52:32;13.20;99.90
50162;DHT22;36061;48.116;11.612;2022-10-16T06:54:59;13.20;99.90
50162;DHT22;36061;48.116;11.612;2022-10-16T06:57:25;13.30;99.90
50162;DHT22;36061;48.116;11.612;2022-10-16T06:59:51;13.30;99.90
50162;DHT22;36061;48.116;11.612;2022-10-16T07:02:17;13.30;99.90
50162;DHT22;36061;48.116;11.612;2022-10-16T07:04:43;13.30;99.90
50162;DHT22;36061;48.116;11.612;2022-10-16T07:07:08;13.30;99.90
50162;DHT22;36061;48.116;11.612;2022-10-16T07:09:34;13.30;99.90
50162;DHT22;36061;48.116;11.612;2022-10-16T07:12:00;13.40;99.90
50162;DHT22;36061;48.116;11.612;2022-10-16T07:14:26;13.40;99.90
50162;DHT22;36061;48.116;11.612;2022-10-16T07:16:51;13.40;99.90
50162;DHT22;36061;48.116;11.612;2022-10-16T07:19:17;13.50;99.90
50162;DHT22;36061;48.116;11.612;2022-10-16T07:21:44;13.50;99.90
50162;DHT22;36061;48.116;11.612;2022-10-16T07:24:14;13.60;99.90
50162;DHT22;36061;48.116;11.612;2022-10-16T07:26:42;13.70;99.90
50162;DHT22;36061;48.116;11.612;2022-10-16T07:29:19;14.00;99.90
50162;DHT22;36061;48.116;11.612;2022-10-16T07:31:45;14.10;99.90
50162;DHT22;36061;48.116;11.612;2022-10-16T07:34:13;14.20;99.90
50162;DHT22;36061;48.116;11.612;2022-10-16T07:36:39;14.40;99.90
50162;DHT22;36061;48.116;11.612;2022-10-16T07:39:05;14.60;99.90
50162;DHT22;36061;48.116;11.612;2022-10-16T07:41:31;14.70;99.90
50162;DHT22;36061;48.116;11.612;2022-10-16T07:43:58;14.80;99.90
50162;DHT22;36061;48.116;11.612;2022-10-16T07:46:28;14.90;99.90
50162;DHT22;36061;48.116;11.612;2022-10-16T07:48:54;15.00;99.90
50162;DHT22;36061;48.116;11.612;2022-10-16T07:51:24;15.10;99.90
50162;DHT22;36061;48.116;11.612;2022-10-16T07:53:50;15.30;99.90
50162;DHT22;36061;48.116;11.612;2022-10-16T07:56:17;15.30;99.90
50162;DHT22;36061;48.116;11.612;2022-10-16T07:58:43;15.50;99.90
50162;DHT22;36061;48.116;11.612;2022-10-16T08:01:12;15.50;99.90
50162;DHT22;36061;48.116;11.612;2022-10-16T08:03:44;15.60;99.90
50162;DHT22;36061;48.116;11.612;2022-10-16T08:06:11;15.60;99.90
50162;DHT22;36061;48.116;11.612;2022-10-16T08:08:37;15.60;99.90
50162;DHT22;36061;48.116;11.612;2022-10-16T08:11:02;15.70;99.90
50162;DHT22;36061;48.116;11.612;2022-10-16T08:13:31;15.70;99.90
50162;DHT22;36061;48.116;11.612;2022-10-16T08:15:57;15.80;99.90
50162;DHT22;36061;48.116;11.612;2022-10-16T08:18:23;15.90;99.90
50162;DHT22;36061;48.116;11.612;2022-10-16T08:20:56;16.00;99.90
50162;DHT22;36061;48.116;11.612;2022-10-16T08:23:22;16.10;99.90
50162;DHT22;36061;48.116;11.612;2022-10-16T08:25:48;16.30;99.90
50162;DHT22;36061;48.116;11.612;2022-10-16T08:28:14;16.40;99.90
50162;DHT22;36061;48.116;11.612;2022-10-16T08:30:41;16.50;99.90
50162;DHT22;36061;48.116;11.612;2022-10-16T08:33:06;16.60;99.90
50162;DHT22;36061;48.116;11.612;2022-10-16T08:35:32;16.70;99.90
50162;DHT22;36061;48.116;11.612;2022-10-16T08:37:58;16.90;99.90
50162;DHT22;36061;48.116;11.612;2022-10-16T08:40:27;17.00;99.90
50162;DHT22;36061;48.116;11.612;2022-10-16T08:48:51;17.20;99.90
50162;DHT22;36061;48.116;11.612;2022-10-16T08:51:26;17.30;99.90
50162;DHT22;36061;48.116;11.612;2022-10-16T08:53:57;17.40;99.90
50162;DHT22;36061;48.116;11.612;2022-10-16T08:56:25;17.50;99.90
50162;DHT22;36061;48.116;11.612;2022-10-16T08:58:52;17.50;99.90
50162;DHT22;36061;48.116;11.612;2022-10-16T09:01:21;17.70;99.90
50162;DHT22;36061;48.116;11.612;2022-10-16T09:11:57;18.20;99.90
50162;DHT22;36061;48.116;11.612;2022-10-16T09:22:44;18.50;99.90
50162;DHT22;36061;48.116;11.612;2022-10-16T09:25:13;18.60;99.90
50162;DHT22;36061;48.116;11.612;2022-10-16T09:27:40;18.70;99.90
50162;DHT22;36061;48.116;11.612;2022-10-16T09:30:18;18.70;99.90
50162;DHT22;36061;48.116;11.612;2022-10-16T09:32:45;18.80;99.90
50162;DHT22;36061;48.116;11.612;2022-10-16T09:35:18;18.90;99.90
50162;DHT22;36061;48.116;11.612;2022-10-16T09:37:48;18.90;99.90
50162;DHT22;36061;48.116;11.612;2022-10-16T09:40:33;18.90;99.90
50162;DHT22;36061;48.116;11.612;2022-10-16T09:43:06;19.00;99.90
50162;DHT22;36061;48.116;11.612;2022-10-16T09:45:35;19.00;99.90
50162;DHT22;36061;48.116;11.612;2022-10-16T09:48:09;19.10;99.90
50162;DHT22;36061;48.116;11.612;2022-10-16T09:50:35;19.10;99.90
50162;DHT22;36061;48.116;11.612;2022-10-16T09:53:12;19.10;99.90
50162;DHT22;36061;48.116;11.612;2022-10-16T09:55:51;19.20;99.90
50162;DHT22;36061;48.116;11.612;2022-10-16T09:58:17;19.20;99.90
50162;DHT22;36061;48.116;11.612;2022-10-16T10:00:50;19.30;99.90
50162;DHT22;36061;48.116;11.612;2022-10-16T10:03:37;19.40;99.90
50162;DHT22;36061;48.116;11.612;2022-10-16T10:06:25;19.50;99.90
50162;DHT22;36061;48.116;11.612;2022-10-16T10:11:37;19.60;99.90
50162;DHT22;36061;48.116;11.612;2022-10-16T10:16:48;19.60;99.90
50162;DHT22;36061;48.116;11.612;2022-10-16T10:19:18;19.70;99.90
50162;DHT22;36061;48.116;11.612;2022-10-16T10:21:45;19.70;99.90
50162;DHT22;36061;48.116;11.612;2022-10-16T10:24:13;19.80;99.90
50162;DHT22;36061;48.116;11.612;2022-10-16T10:26:44;19.80;99.90
50162;DHT22;36061;48.116;11.612;2022-10-16T10:29:28;19.90;99.90
50162;DHT22;36061;48.116;11.612;2022-10-16T10:32:12;19.90;99.90
50162;DHT22;36061;48.116;11.612;2022-10-16T10:37:37;20.00;99.90
50162;DHT22;36061;48.116;11.612;2022-10-16T10:46:10;20.00;99.90
50162;DHT22;36061;48.116;11.612;2022-10-16T10:51:08;20.10;99.90
50162;DHT22;36061;48.116;11.612;2022-10-16T10:53:49;20.20;99.90
50162;DHT22;36061;48.116;11.612;2022-10-16T11:07:58;20.40;99.90
50162;DHT22;36061;48.116;11.612;2022-10-16T11:10:46;20.50;99.90
50162;DHT22;36061;48.116;11.612;2022-10-16T11:13:43;20.60;99.90
50162;DHT22;36061;48.116;11.612;2022-10-16T11:16:22;20.60;99.90
50162;DHT22;36061;48.116;11.612;2022-10-16T11:19:04;20.70;99.90
50162;DHT22;36061;48.116;11.612;2022-10-16T11:21:43;20.70;99.90
50162;DHT22;36061;48.116;11.612;2022-10-16T11:24:22;20.70;99.90
50162;DHT22;36061;48.116;11.612;2022-10-16T11:26:49;20.80;99.90
50162;DHT22;36061;48.116;11.612;2022-10-16T11:29:22;20.80;99.90
50162;DHT22;36061;48.116;11.612;2022-10-16T11:31:55;20.80;99.90
50162;DHT22;36061;48.116;11.612;2022-10-16T11:37:10;20.90;99.90
50162;DHT22;36061;48.116;11.612;2022-10-16T11:39:38;20.90;99.90
50162;DHT22;36061;48.116;11.612;2022-10-16T11:42:11;20.90;99.90
50162;DHT22;36061;48.116;11.612;2022-10-16T11:55:37;21.00;99.90
50162;DHT22;36061;48.116;11.612;2022-10-16T11:58:07;21.00;99.90
50162;DHT22;36061;48.116;11.612;2022-10-16T12:03:40;21.30;99.90
50162;DHT22;36061;48.116;11.612;2022-10-16T12:08:55;21.40;99.90
50162;DHT22;36061;48.116;11.612;2022-10-16T12:17:04;21.40;99.90
50162;DHT22;36061;48.116;11.612;2022-10-16T12:20:30;21.40;99.90
50162;DHT22;36061;48.116;11.612;2022-10-16T12:23:02;21.50;99.80
50162;DHT22;36061;48.116;11.612;2022-10-16T12:25:37;21.60;99.20
50162;DHT22;36061;48.116;11.612;2022-10-16T12:28:22;21.60;98.60
50162;DHT22;36061;48.116;11.612;2022-10-16T12:30:59;21.70;98.30
50162;DHT22;36061;48.116;11.612;2022-10-16T12:33:31;21.70;98.70
50162;DHT22;36061;48.116;11.612;2022-10-16T12:36:00;21.70;97.80
50162;DHT22;36061;48.116;11.612;2022-10-16T12:41:09;21.70;97.90
50162;DHT22;36061;48.116;11.612;2022-10-16T12:43:41;21.70;97.90
50162;DHT22;36061;48.116;11.612;2022-10-16T12:48:40;21.70;97.60
50162;DHT22;36061;48.116;11.612;2022-10-16T12:51:36;21.70;97.60
50162;DHT22;36061;48.116;11.612;2022-10-16T12:54:23;21.70;97.70
50162;DHT22;36061;48.116;11.612;2022-10-16T13:29:41;21.60;97.10
50162;DHT22;36061;48.116;11.612;2022-10-16T13:32:10;21.60;97.60
50162;DHT22;36061;48.116;11.612;2022-10-16T13:34:45;21.60;97.80
50162;DHT22;36061;48.116;11.612;2022-10-16T13:37:22;21.60;97.90
50162;DHT22;36061;48.116;11.612;2022-10-16T13:39:48;21.60;97.90
50162;DHT22;36061;48.116;11.612;2022-10-16T13:42:26;21.60;97.80
50162;DHT22;36061;48.116;11.612;2022-10-16T13:44:54;21.60;97.70
50162;DHT22;36061;48.116;11.612;2022-10-16T13:47:28;21.50;97.60
50162;DHT22;36061;48.116;11.612;2022-10-16T13:50:16;21.50;97.70
50162;DHT22;36061;48.116;11.612;2022-10-16T13:52:42;21.50;97.90
50162;DHT22;36061;48.116;11.612;2022-10-16T13:55:12;21.50;97.70
50162;DHT22;36061;48.116;11.612;2022-10-16T13:57:39;21.50;97.80
50162;DHT22;36061;48.116;11.612;2022-10-16T14:00:26;21.40;97.90
50162;DHT22;36061;48.116;11.612;2022-10-16T14:03:00;21.40;97.80
50162;DHT22;36061;48.116;11.612;2022-10-16T14:05:27;21.40;97.70
50162;DHT22;36061;48.116;11.612;2022-10-16T14:07:54;21.40;97.80
50162;DHT22;36061;48.116;11.612;2022-10-16T14:10:27;21.30;98.10
50162;DHT22;36061;48.116;11.612;2022-10-16T14:13:01;21.40;98.00
50162;DHT22;36061;48.116;11.612;2022-10-16T14:15:29;21.30;98.00
50162;DHT22;36061;48.116;11.612;2022-10-16T14:17:56;21.30;98.10
50162;DHT22;36061;48.116;11.612;2022-10-16T14:20:27;21.30;98.30
50162;DHT22;36061;48.116;11.612;2022-10-16T14:23:16;21.30;98.30
50162;DHT22;36061;48.116;11.612;2022-10-16T14:25:44;21.30;98.30
50162;DHT22;36061;48.116;11.612;2022-10-16T14:30:55;21.30;97.90
50162;DHT22;36061;48.116;11.612;2022-10-16T14:33:32;21.30;98.00
50162;DHT22;36061;48.116;11.612;2022-10-16T14:36:05;21.20;98.20
50162;DHT22;36061;48.116;11.612;2022-10-16T14:38:32;21.20;98.10
50162;DHT22;36061;48.116;11.612;2022-10-16T14:40:59;21.20;98.10
50162;DHT22;36061;48.116;11.612;2022-10-16T14:43:39;21.20;97.80
50162;DHT22;36061;48.116;11.612;2022-10-16T14:46:12;21.20;97.70
50162;DHT22;36061;48.116;11.612;2022-10-16T14:48:43;21.20;97.70
50162;DHT22;36061;48.116;11.612;2022-10-16T14:51:13;21.20;97.90
50162;DHT22;36061;48.116;11.612;2022-10-16T14:53:40;21.20;97.50
50162;DHT22;36061;48.116;11.612;2022-10-16T14:56:07;21.20;97.30
50162;DHT22;36061;48.116;11.612;2022-10-16T14:58:35;21.10;97.30
50162;DHT22;36061;48.116;11.612;2022-10-16T15:01:00;21.10;97.40
50162;DHT22;36061;48.116;11.612;2022-10-16T15:03:26;21.00;97.30
50162;DHT22;36061;48.116;11.612;2022-10-16T15:05:52;21.00;97.20
50162;DHT22;36061;48.116;11.612;2022-10-16T15:08:18;21.00;97.10
50162;DHT22;36061;48.116;11.612;2022-10-16T15:10:44;21.00;97.40
50162;DHT22;36061;48.116;11.612;2022-10-16T15:13:13;21.00;97.40
50162;DHT22;36061;48.116;11.612;2022-10-16T15:15:46;20.90;97.60
50162;DHT22;36061;48.116;11.612;2022-10-16T15:18:12;20.90;98.00
50162;DHT22;36061;48.116;11.612;2022-10-16T15:20:40;20.80;98.00
50162;DHT22;36061;48.116;11.612;2022-10-16T15:23:17;20.80;98.30
50162;DHT22;36061;48.116;11.612;2022-10-16T15:25:51;20.70;98.60
50162;DHT22;36061;48.116;11.612;2022-10-16T15:28:19;20.70;98.90
50162;DHT22;36061;48.116;11.612;2022-10-16T15:30:46;20.70;99.10
50162;DHT22;36061;48.116;11.612;2022-10-16T15:33:14;20.70;99.30
50162;DHT22;36061;48.116;11.612;2022-10-16T15:35:40;20.70;99.80
50162;DHT22;36061;48.116;11.612;2022-10-16T15:38:08;20.60;99.90
50162;DHT22;36061;48.116;11.612;2022-10-16T15:40:35;20.60;99.90
50162;DHT22;36061;48.116;11.612;2022-10-16T15:43:01;20.60;99.90
50162;DHT22;36061;48.116;11.612;2022-10-16T15:45:27;20.50;99.90
50162;DHT22;36061;48.116;11.612;2022-10-16T15:47:53;20.50;99.90
50162;DHT22;36061;48.116;11.612;2022-10-16T15:50:18;20.50;99.90
50162;DHT22;36061;48.116;11.612;2022-10-16T15:52:44;20.50;99.90
50162;DHT22;36061;48.116;11.612;2022-10-16T15:55:12;20.50;99.90
50162;DHT22;36061;48.116;11.612;2022-10-16T15:57:38;20.40;99.90
50162;DHT22;36061;48.116;11.612;2022-10-16T16:00:14;20.40;99.90
50162;DHT22;36061;48.116;11.612;2022-10-16T16:02:41;20.30;99.90
50162;DHT22;36061;48.116;11.612;2022-10-16T16:05:08;20.20;99.90
50162;DHT22;36061;48.116;11.612;2022-10-16T16:07:35;20.20;99.90
50162;DHT22;36061;48.116;11.612;2022-10-16T16:10:03;20.20;99.90
50162;DHT22;36061;48.116;11.612;2022-10-16T16:12:30;20.10;99.90
50162;DHT22;36061;48.116;11.612;2022-10-16T16:14:55;20.10;99.90
50162;DHT22;36061;48.116;11.612;2022-10-16T16:17:21;20.00;99.90
50162;DHT22;36061;48.116;11.612;2022-10-16T16:19:47;20.00;99.90
50162;DHT22;36061;48.116;11.612;2022-10-16T16:22:13;19.80;99.90
50162;DHT22;36061;48.116;11.612;2022-10-16T16:24:39;19.90;99.90
50162;DHT22;36061;48.116;11.612;2022-10-16T16:27:05;19.80;99.90
50162;DHT22;36061;48.116;11.612;2022-10-16T16:29:30;19.70;99.90
50162;DHT22;36061;48.116;11.612;2022-10-16T16:31:56;19.70;99.90
50162;DHT22;36061;48.116;11.612;2022-10-16T16:34:28;19.70;99.90
50162;DHT22;36061;48.116;11.612;2022-10-16T16:36:55;19.60;99.90
50162;DHT22;36061;48.116;11.612;2022-10-16T16:39:21;19.50;99.90
50162;DHT22;36061;48.116;11.612;2022-10-16T16:41:47;19.40;99.90
50162;DHT22;36061;48.116;11.612;2022-10-16T16:44:14;19.30;99.90
50162;DHT22;36061;48.116;11.612;2022-10-16T16:46:41;19.20;99.90
50162;DHT22;36061;48.116;11.612;2022-10-16T16:49:10;19.10;99.90
50162;DHT22;36061;48.116;11.612;2022-10-16T16:51:38;19.10;99.90
50162;DHT22;36061;48.116;11.612;2022-10-16T16:54:05;19.10;99.90
50162;DHT22;36061;48.116;11.612;2022-10-16T16:56:32;19.00;99.90
50162;DHT22;36061;48.116;11.612;2022-10-16T16:58:58;18.90;99.90
50162;DHT22;36061;48.116;11.612;2022-10-16T17:01:26;18.80;99.90
50162;DHT22;36061;48.116;11.612;2022-10-16T17:03:54;18.80;99.90
50162;DHT22;36061;48.116;11.612;2022-10-16T17:06:21;18.70;99.90
50162;DHT22;36061;48.116;11.612;2022-10-16T17:08:48;18.60;99.90
50162;DHT22;36061;48.116;11.612;2022-10-16T17:11:20;18.50;99.90
50162;DHT22;36061;48.116;11.612;2022-10-16T17:13:47;18.40;99.90
50162;DHT22;36061;48.116;11.612;2022-10-16T17:16:13;18.40;99.90
50162;DHT22;36061;48.116;11.612;2022-10-16T17:18:39;18.30;99.90
50162;DHT22;36061;48.116;11.612;2022-10-16T17:21:07;18.20;99.90
50162;DHT22;36061;48.116;11.612;2022-10-16T17:23:35;18.10;99.90
50162;DHT22;36061;48.116;11.612;2022-10-16T17:26:06;18.10;99.90
50162;DHT22;36061;48.116;11.612;2022-10-16T17:28:32;18.00;99.90
50162;DHT22;36061;48.116;11.612;2022-10-16T17:31:12;18.00;99.90
50162;DHT22;36061;48.116;11.612;2022-10-16T17:33:38;17.90;99.90
50162;DHT22;36061;48.116;11.612;2022-10-16T17:36:04;17.90;99.90
50162;DHT22;36061;48.116;11.612;2022-10-16T17:38:30;17.80;99.90
50162;DHT22;36061;48.116;11.612;2022-10-16T17:40:56;17.80;99.90